sensor_id;sensor_type;location;lat;lon;timestamp;temperature;humidity
78289;DHT22;67539;48.752;12.922;2023-05-14T00:01:40;9.20;99.90
78289;DHT22;67539;48.752;12.922;2023-05-14T00:04:09;9.20;99.90
78289;DHT22;67539;48.752;12.922;2023-05-14T00:06:37;9.20;99.90
78289;DHT22;67539;48.752;12.922;2023-05-14T00:09:07;9.10;99.90
78289;DHT22;67539;48.752;12.922;2023-05-14T00:11:35;9.10;99.90
78289;DHT22;67539;48.752;12.922;2023-05-14T00:14:04;9.10;99.90
78289;DHT22;67539;48.752;12.922;2023-05-14T00:16:32;9.10;99.90
78289;DHT22;67539;48.752;12.922;2023-05-14T00:19:00;9.00;99.90
78289;DHT22;67539;48.752;12.922;2023-05-14T00:21:29;9.00;99.90
78289;DHT22;67539;48.752;12.922;2023-05-14T00:23:57;9.00;99.90
78289;DHT22;67539;48.752;12.922;2023-05-14T00:26:27;9.00;99.90
78289;DHT22;67539;48.752;12.922;2023-05-14T00:28:55;9.00;99.90
78289;DHT22;67539;48.752;12.922;2023-05-14T00:31:23;9.00;99.90
78289;DHT22;67539;48.752;12.922;2023-05-14T00:33:52;9.00;99.90
78289;DHT22;67539;48.752;12.922;2023-05-14T00:36:20;9.00;99.90
78289;DHT22;67539;48.752;12.922;2023-05-14T00:38:49;9.00;99.90
78289;DHT22;67539;48.752;12.922;2023-05-14T00:41:17;8.90;99.90
78289;DHT22;67539;48.752;12.922;2023-05-14T00:43:47;8.90;99.90
78289;DHT22;67539;48.752;12.922;2023-05-14T00:46:16;8.90;99.90
78289;DHT22;67539;48.752;12.922;2023-05-14T00:48:44;8.90;99.90
78289;DHT22;67539;48.752;12.922;2023-05-14T00:51:13;8.90;99.90
78289;DHT22;67539;48.752;12.922;2023-05-14T00:53:42;8.90;99.90
78289;DHT22;67539;48.752;12.922;2023-05-14T00:56:11;8.80;99.90
78289;DHT22;67539;48.752;12.922;2023-05-14T00:58:40;8.80;99.90
78289;DHT22;67539;48.752;12.922;2023-05-14T01:01:10;8.80;99.90
78289;DHT22;67539;48.752;12.922;2023-05-14T01:03:41;8.70;99.90
78289;DHT22;67539;48.752;12.922;2023-05-14T01:06:14;8.70;99.90
78289;DHT22;67539;48.752;12.922;2023-05-14T01:08:52;8.60;99.90
78289;DHT22;67539;48.752;12.922;2023-05-14T01:11:27;8.60;99.90
78289;DHT22;67539;48.752;12.922;2023-05-14T01:14:02;8.60;99.90
78289;DHT22;67539;48.752;12.922;2023-05-14T01:16:35;8.60;99.90
78289;DHT22;67539;48.752;12.922;2023-05-14T01:19:06;8.60;99.90
78289;DHT22;67539;48.752;12.922;2023-05-14T01:21:42;8.50;99.90
78289;DHT22;67539;48.752;12.922;2023-05-14T01:24:10;8.50;99.90
78289;DHT22;67539;48.752;12.922;2023-05-14T01:26:38;8.50;99.90
78289;DHT22;67539;48.752;12.922;2023-05-14T01:29:20;8.50;99.90
78289;DHT22;67539;48.752;12.922;2023-05-14T01:31:50;8.50;99.90
78289;DHT22;67539;48.752;12.922;2023-05-14T01:34:23;8.50;99.90
78289;DHT22;67539;48.752;12.922;2023-05-14T01:36:54;8.60;99.90
78289;DHT22;67539;48.752;12.922;2023-05-14T01:39:25;8.50;99.90
78289;DHT22;67539;48.752;12.922;2023-05-14T01:41:54;8.60;99.90
78289;DHT22;67539;48.752;12.922;2023-05-14T01:44:23;8.70;99.90
78289;DHT22;67539;48.752;12.922;2023-05-14T01:46:52;8.70;99.90
78289;DHT22;67539;48.752;12.922;2023-05-14T01:49:20;8.60;99.90
78289;DHT22;67539;48.752;12.922;2023-05-14T01:51:48;8.60;99.90
78289;DHT22;67539;48.752;12.922;2023-05-14T01:54:18;8.60;99.90
78289;DHT22;67539;48.752;12.922;2023-05-14T01:56:46;8.60;99.90
78289;DHT22;67539;48.752;12.922;2023-05-14T01:59:14;8.70;99.90
78289;DHT22;67539;48.752;12.922;2023-05-14T02:01:43;8.70;99.90
78289;DHT22;67539;48.752;12.922;2023-05-14T02:04:11;8.70;99.90
78289;DHT22;67539;48.752;12.922;2023-05-14T02:06:40;8.60;99.90
78289;DHT22;67539;48.752;12.922;2023-05-14T02:09:09;8.60;99.90
78289;DHT22;67539;48.752;12.922;2023-05-14T02:11:39;8.50;99.90
78289;DHT22;67539;48.752;12.922;2023-05-14T02:14:07;8.50;99.90
78289;DHT22;67539;48.752;12.922;2023-05-14T02:16:35;8.40;99.90
78289;DHT22;67539;48.752;12.922;2023-05-14T02:19:03;8.40;99.90
78289;DHT22;67539;48.752;12.922;2023-05-14T02:21:32;8.30;99.90
78289;DHT22;67539;48.752;12.922;2023-05-14T02:24:00;8.30;99.90
78289;DHT22;67539;48.752;12.922;2023-05-14T02:26:28;8.30;99.90
78289;DHT22;67539;48.752;12.922;2023-05-14T02:28:58;8.30;99.90
78289;DHT22;67539;48.752;12.922;2023-05-14T02:31:26;8.20;99.90
78289;DHT22;67539;48.752;12.922;2023-05-14T02:33:55;8.20;99.90
78289;DHT22;67539;48.752;12.922;2023-05-14T02:36:23;8.20;99.90
78289;DHT22;67539;48.752;12.922;2023-05-14T02:38:51;8.20;99.90
78289;DHT22;67539;48.752;12.922;2023-05-14T02:41:21;8.20;99.90
78289;DHT22;67539;48.752;12.922;2023-05-14T02:43:51;8.20;99.90
78289;DHT22;67539;48.752;12.922;2023-05-14T02:46:21;8.20;99.90
78289;DHT22;67539;48.752;12.922;2023-05-14T02:48:50;8.20;99.90
78289;DHT22;67539;48.752;12.922;2023-05-14T02:51:19;8.20;99.90
78289;DHT22;67539;48.752;12.922;2023-05-14T02:53:48;8.30;99.90
78289;DHT22;67539;48.752;12.922;2023-05-14T02:56:16;8.30;99.90
78289;DHT22;67539;48.752;12.922;2023-05-14T02:58:44;8.40;99.90
78289;DHT22;67539;48.752;12.922;2023-05-14T03:01:13;8.40;99.90
78289;DHT22;67539;48.752;12.922;2023-05-14T03:03:44;8.40;99.90
78289;DHT22;67539;48.752;12.922;2023-05-14T03:06:12;8.40;99.90
78289;DHT22;67539;48.752;12.922;2023-05-14T03:08:41;8.30;99.90
78289;DHT22;67539;48.752;12.922;2023-05-14T03:11:09;8.30;99.90
78289;DHT22;67539;48.752;12.922;2023-05-14T03:13:37;8.30;99.90
78289;DHT22;67539;48.752;12.922;2023-05-14T03:16:06;8.20;99.90
78289;DHT22;67539;48.752;12.922;2023-05-14T03:18:35;8.30;99.90
78289;DHT22;67539;48.752;12.922;2023-05-14T03:21:05;8.30;99.90
78289;DHT22;67539;48.752;12.922;2023-05-14T03:23:34;8.20;99.90
78289;DHT22;67539;48.752;12.922;2023-05-14T03:26:03;8.20;99.90
78289;DHT22;67539;48.752;12.922;2023-05-14T03:28:32;8.10;99.90
78289;DHT22;67539;48.752;12.922;2023-05-14T03:31:00;8.10;99.90
78289;DHT22;67539;48.752;12.922;2023-05-14T03:33:29;8.10;99.90
78289;DHT22;67539;48.752;12.922;2023-05-14T03:35:58;8.00;99.90
78289;DHT22;67539;48.752;12.922;2023-05-14T03:38:27;8.00;99.90
78289;DHT22;67539;48.752;12.922;2023-05-14T03:40:57;7.90;99.90
78289;DHT22;67539;48.752;12.922;2023-05-14T03:43:25;7.90;99.90
78289;DHT22;67539;48.752;12.922;2023-05-14T03:45:54;7.90;99.90
78289;DHT22;67539;48.752;12.922;2023-05-14T03:48:22;7.90;99.90
78289;DHT22;67539;48.752;12.922;2023-05-14T03:50:51;8.00;99.90
78289;DHT22;67539;48.752;12.922;2023-05-14T03:53:19;8.00;99.90
78289;DHT22;67539;48.752;12.922;2023-05-14T03:55:49;8.00;99.90
78289;DHT22;67539;48.752;12.922;2023-05-14T03:58:18;8.00;99.90
78289;DHT22;67539;48.752;12.922;2023-05-14T04:00:46;8.00;99.90
78289;DHT22;67539;48.752;12.922;2023-05-14T04:03:14;8.00;99.90
78289;DHT22;67539;48.752;12.922;2023-05-14T04:05:43;8.00;99.90
78289;DHT22;67539;48.752;12.922;2023-05-14T04:08:12;8.00;99.90
78289;DHT22;67539;48.752;12.922;2023-05-14T04:10:41;8.00;99.90
78289;DHT22;67539;48.752;12.922;2023-05-14T04:13:11;7.90;99.90
78289;DHT22;67539;48.752;12.922;2023-05-14T04:15:40;8.00;99.90
78289;DHT22;67539;48.752;12.922;2023-05-14T04:18:08;8.00;99.90
78289;DHT22;67539;48.752;12.922;2023-05-14T04:20:37;8.00;99.90
78289;DHT22;67539;48.752;12.922;2023-05-14T04:23:06;8.00;99.90
78289;DHT22;67539;48.752;12.922;2023-05-14T04:25:34;8.00;99.90
78289;DHT22;67539;48.752;12.922;2023-05-14T04:28:03;8.00;99.90
78289;DHT22;67539;48.752;12.922;2023-05-14T04:30:33;8.00;99.90
78289;DHT22;67539;48.752;12.922;2023-05-14T04:33:02;8.00;99.90
78289;DHT22;67539;48.752;12.922;2023-05-14T04:35:30;8.00;99.90
78289;DHT22;67539;48.752;12.922;2023-05-14T04:37:59;8.00;99.90
78289;DHT22;67539;48.752;12.922;2023-05-14T04:40:27;8.10;99.90
78289;DHT22;67539;48.752;12.922;2023-05-14T04:42:57;8.10;99.90
78289;DHT22;67539;48.752;12.922;2023-05-14T04:45:25;8.20;99.90
78289;DHT22;67539;48.752;12.922;2023-05-14T04:47:55;8.20;99.90
78289;DHT22;67539;48.752;12.922;2023-05-14T04:50:23;8.30;99.90
78289;DHT22;67539;48.752;12.922;2023-05-14T04:52:52;8.30;99.90
78289;DHT22;67539;48.752;12.922;2023-05-14T04:55:21;8.40;99.90
78289;DHT22;67539;48.752;12.922;2023-05-14T04:57:50;8.50;99.90
78289;DHT22;67539;48.752;12.922;2023-05-14T05:00:18;8.60;99.90
78289;DHT22;67539;48.752;12.922;2023-05-14T05:02:48;8.60;99.90
78289;DHT22;67539;48.752;12.922;2023-05-14T05:05:18;8.70;99.90
78289;DHT22;67539;48.752;12.922;2023-05-14T05:07:47;8.80;99.90
78289;DHT22;67539;48.752;12.922;2023-05-14T05:10:15;8.90;99.90
78289;DHT22;67539;48.752;12.922;2023-05-14T05:12:43;9.00;99.90
78289;DHT22;67539;48.752;12.922;2023-05-14T05:15:12;9.00;99.90
78289;DHT22;67539;48.752;12.922;2023-05-14T05:17:40;9.10;99.90
78289;DHT22;67539;48.752;12.922;2023-05-14T05:20:09;9.20;99.90
78289;DHT22;67539;48.752;12.922;2023-05-14T05:22:39;9.30;99.90
78289;DHT22;67539;48.752;12.922;2023-05-14T05:25:08;9.40;99.90
78289;DHT22;67539;48.752;12.922;2023-05-14T05:27:38;9.50;99.90
78289;DHT22;67539;48.752;12.922;2023-05-14T05:30:07;9.60;99.90
78289;DHT22;67539;48.752;12.922;2023-05-14T05:32:36;9.60;99.90
78289;DHT22;67539;48.752;12.922;2023-05-14T05:35:06;9.70;99.90
78289;DHT22;67539;48.752;12.922;2023-05-14T05:37:35;9.80;99.90
78289;DHT22;67539;48.752;12.922;2023-05-14T05:40:06;9.90;99.90
78289;DHT22;67539;48.752;12.922;2023-05-14T05:42:35;10.00;99.90
78289;DHT22;67539;48.752;12.922;2023-05-14T05:45:04;10.10;99.90
78289;DHT22;67539;48.752;12.922;2023-05-14T05:47:33;10.10;99.90
78289;DHT22;67539;48.752;12.922;2023-05-14T05:50:01;10.20;99.90
78289;DHT22;67539;48.752;12.922;2023-05-14T05:52:29;10.30;99.90
78289;DHT22;67539;48.752;12.922;2023-05-14T05:54:58;10.40;99.90
78289;DHT22;67539;48.752;12.922;2023-05-14T05:57:28;10.60;99.90
78289;DHT22;67539;48.752;12.922;2023-05-14T05:59:56;10.70;99.90
78289;DHT22;67539;48.752;12.922;2023-05-14T06:02:25;10.90;99.90
78289;DHT22;67539;48.752;12.922;2023-05-14T06:04:53;11.10;99.90
78289;DHT22;67539;48.752;12.922;2023-05-14T06:07:22;11.20;99.90
78289;DHT22;67539;48.752;12.922;2023-05-14T06:09:50;11.40;99.90
78289;DHT22;67539;48.752;12.922;2023-05-14T06:12:18;11.50;99.90
78289;DHT22;67539;48.752;12.922;2023-05-14T06:14:48;11.60;99.90
78289;DHT22;67539;48.752;12.922;2023-05-14T06:17:17;11.70;99.90
78289;DHT22;67539;48.752;12.922;2023-05-14T06:19:45;11.80;99.90
78289;DHT22;67539;48.752;12.922;2023-05-14T06:22:13;12.00;99.90
78289;DHT22;67539;48.752;12.922;2023-05-14T06:24:42;12.10;99.90
78289;DHT22;67539;48.752;12.922;2023-05-14T06:27:10;12.20;99.90
78289;DHT22;67539;48.752;12.922;2023-05-14T06:29:38;12.20;99.90
78289;DHT22;67539;48.752;12.922;2023-05-14T06:32:08;12.30;99.90
78289;DHT22;67539;48.752;12.922;2023-05-14T06:34:38;12.40;99.90
78289;DHT22;67539;48.752;12.922;2023-05-14T06:37:06;12.40;99.90
78289;DHT22;67539;48.752;12.922;2023-05-14T06:39:35;12.60;99.90
78289;DHT22;67539;48.752;12.922;2023-05-14T06:42:04;12.80;99.90
78289;DHT22;67539;48.752;12.922;2023-05-14T06:44:33;12.90;99.90
78289;DHT22;67539;48.752;12.922;2023-05-14T06:47:02;13.00;99.90
78289;DHT22;67539;48.752;12.922;2023-05-14T06:49:31;13.10;99.90
78289;DHT22;67539;48.752;12.922;2023-05-14T06:51:59;13.10;99.90
78289;DHT22;67539;48.752;12.922;2023-05-14T06:54:28;13.30;99.90
78289;DHT22;67539;48.752;12.922;2023-05-14T06:56:57;13.40;99.90
78289;DHT22;67539;48.752;12.922;2023-05-14T06:59:25;13.50;99.90
78289;DHT22;67539;48.752;12.922;2023-05-14T07:01:53;13.60;99.20
78289;DHT22;67539;48.752;12.922;2023-05-14T07:04:22;13.70;99.20
78289;DHT22;67539;48.752;12.922;2023-05-14T07:06:53;13.80;98.80
78289;DHT22;67539;48.752;12.922;2023-05-14T07:09:24;13.90;98.80
78289;DHT22;67539;48.752;12.922;2023-05-14T07:11:54;13.90;99.10
78289;DHT22;67539;48.752;12.922;2023-05-14T07:14:23;14.00;98.60
78289;DHT22;67539;48.752;12.922;2023-05-14T07:16:51;14.00;98.50
78289;DHT22;67539;48.752;12.922;2023-05-14T07:19:19;14.10;97.90
78289;DHT22;67539;48.752;12.922;2023-05-14T07:21:48;14.20;98.50
78289;DHT22;67539;48.752;12.922;2023-05-14T07:24:18;14.30;98.60
78289;DHT22;67539;48.752;12.922;2023-05-14T07:26:47;14.30;98.90
78289;DHT22;67539;48.752;12.922;2023-05-14T07:29:15;14.30;98.90
78289;DHT22;67539;48.752;12.922;2023-05-14T07:31:44;14.40;98.00
78289;DHT22;67539;48.752;12.922;2023-05-14T07:34:12;14.30;96.50
78289;DHT22;67539;48.752;12.922;2023-05-14T07:36:40;14.30;97.30
78289;DHT22;67539;48.752;12.922;2023-05-14T07:39:09;14.30;97.30
78289;DHT22;67539;48.752;12.922;2023-05-14T07:41:39;14.30;97.60
78289;DHT22;67539;48.752;12.922;2023-05-14T07:44:07;14.40;98.30
78289;DHT22;67539;48.752;12.922;2023-05-14T07:46:35;14.40;98.30
78289;DHT22;67539;48.752;12.922;2023-05-14T07:49:03;14.40;98.80
78289;DHT22;67539;48.752;12.922;2023-05-14T07:51:32;14.50;98.60
78289;DHT22;67539;48.752;12.922;2023-05-14T07:54:00;14.60;98.90
78289;DHT22;67539;48.752;12.922;2023-05-14T07:56:28;14.70;98.90
78289;DHT22;67539;48.752;12.922;2023-05-14T07:58:58;14.80;98.40
78289;DHT22;67539;48.752;12.922;2023-05-14T08:01:26;14.80;98.10
78289;DHT22;67539;48.752;12.922;2023-05-14T08:03:54;15.00;98.70
78289;DHT22;67539;48.752;12.922;2023-05-14T08:06:23;15.10;98.80
78289;DHT22;67539;48.752;12.922;2023-05-14T08:08:53;15.20;98.20
78289;DHT22;67539;48.752;12.922;2023-05-14T08:11:21;15.40;98.20
78289;DHT22;67539;48.752;12.922;2023-05-14T08:13:50;15.50;97.50
78289;DHT22;67539;48.752;12.922;2023-05-14T08:16:19;15.60;96.70
78289;DHT22;67539;48.752;12.922;2023-05-14T08:18:47;15.70;97.50
78289;DHT22;67539;48.752;12.922;2023-05-14T08:21:16;15.70;96.90
78289;DHT22;67539;48.752;12.922;2023-05-14T08:23:45;15.80;96.80
78289;DHT22;67539;48.752;12.922;2023-05-14T08:26:13;15.80;96.60
78289;DHT22;67539;48.752;12.922;2023-05-14T08:28:42;15.80;96.20
78289;DHT22;67539;48.752;12.922;2023-05-14T08:31:10;15.90;97.00
78289;DHT22;67539;48.752;12.922;2023-05-14T08:33:42;15.90;96.10
78289;DHT22;67539;48.752;12.922;2023-05-14T08:36:11;16.00;96.70
78289;DHT22;67539;48.752;12.922;2023-05-14T08:38:39;16.10;96.80
78289;DHT22;67539;48.752;12.922;2023-05-14T08:41:08;16.30;96.50
78289;DHT22;67539;48.752;12.922;2023-05-14T08:43:44;16.30;96.50
78289;DHT22;67539;48.752;12.922;2023-05-14T08:46:21;16.50;96.80
78289;DHT22;67539;48.752;12.922;2023-05-14T08:48:55;16.50;95.10
78289;DHT22;67539;48.752;12.922;2023-05-14T08:51:25;16.40;94.80
78289;DHT22;67539;48.752;12.922;2023-05-14T08:53:55;16.60;96.00
78289;DHT22;67539;48.752;12.922;2023-05-14T08:56:26;16.70;95.50
78289;DHT22;67539;48.752;12.922;2023-05-14T08:58:54;16.80;95.00
78289;DHT22;67539;48.752;12.922;2023-05-14T09:01:23;16.90;95.40
78289;DHT22;67539;48.752;12.922;2023-05-14T09:03:54;17.10;94.80
78289;DHT22;67539;48.752;12.922;2023-05-14T09:06:23;17.20;95.40
78289;DHT22;67539;48.752;12.922;2023-05-14T09:08:52;17.30;95.20
78289;DHT22;67539;48.752;12.922;2023-05-14T09:11:21;17.50;95.60
78289;DHT22;67539;48.752;12.922;2023-05-14T09:13:50;17.70;95.30
78289;DHT22;67539;48.752;12.922;2023-05-14T09:16:19;17.70;93.30
78289;DHT22;67539;48.752;12.922;2023-05-14T09:18:48;17.70;94.20
78289;DHT22;67539;48.752;12.922;2023-05-14T09:21:19;17.70;92.80
78289;DHT22;67539;48.752;12.922;2023-05-14T09:23:52;17.70;93.20
78289;DHT22;67539;48.752;12.922;2023-05-14T09:26:22;17.70;91.90
78289;DHT22;67539;48.752;12.922;2023-05-14T09:28:55;17.60;91.80
78289;DHT22;67539;48.752;12.922;2023-05-14T09:31:26;17.70;93.30
78289;DHT22;67539;48.752;12.922;2023-05-14T09:33:57;17.70;93.30
78289;DHT22;67539;48.752;12.922;2023-05-14T09:36:27;17.70;91.50
78289;DHT22;67539;48.752;12.922;2023-05-14T09:38:55;17.60;92.10
78289;DHT22;67539;48.752;12.922;2023-05-14T09:41:25;17.60;91.20
78289;DHT22;67539;48.752;12.922;2023-05-14T09:43:53;17.60;92.00
78289;DHT22;67539;48.752;12.922;2023-05-14T09:46:22;17.80;92.60
78289;DHT22;67539;48.752;12.922;2023-05-14T09:48:56;17.80;92.40
78289;DHT22;67539;48.752;12.922;2023-05-14T09:51:24;18.00;93.90
78289;DHT22;67539;48.752;12.922;2023-05-14T09:53:54;18.30;93.00
78289;DHT22;67539;48.752;12.922;2023-05-14T09:56:22;18.50;93.10
78289;DHT22;67539;48.752;12.922;2023-05-14T09:58:51;18.50;91.90
78289;DHT22;67539;48.752;12.922;2023-05-14T10:01:19;18.60;92.00
78289;DHT22;67539;48.752;12.922;2023-05-14T10:03:49;18.60;90.60
78289;DHT22;67539;48.752;12.922;2023-05-14T10:06:20;18.80;91.20
78289;DHT22;67539;48.752;12.922;2023-05-14T10:08:54;18.90;90.10
78289;DHT22;67539;48.752;12.922;2023-05-14T10:11:24;19.00;90.60
78289;DHT22;67539;48.752;12.922;2023-05-14T10:14:00;19.20;91.20
78289;DHT22;67539;48.752;12.922;2023-05-14T10:16:32;19.30;91.90
78289;DHT22;67539;48.752;12.922;2023-05-14T10:19:04;19.30;91.70
78289;DHT22;67539;48.752;12.922;2023-05-14T10:21:35;19.30;90.40
78289;DHT22;67539;48.752;12.922;2023-05-14T10:24:07;19.30;90.20
78289;DHT22;67539;48.752;12.922;2023-05-14T10:26:37;19.20;91.10
78289;DHT22;67539;48.752;12.922;2023-05-14T10:29:07;19.30;90.60
78289;DHT22;67539;48.752;12.922;2023-05-14T10:31:47;19.30;90.70
78289;DHT22;67539;48.752;12.922;2023-05-14T10:34:35;19.40;87.40
78289;DHT22;67539;48.752;12.922;2023-05-14T10:37:06;19.50;87.50
78289;DHT22;67539;48.752;12.922;2023-05-14T10:39:48;19.50;88.90
78289;DHT22;67539;48.752;12.922;2023-05-14T10:42:18;19.50;88.90
78289;DHT22;67539;48.752;12.922;2023-05-14T10:44:49;19.50;87.70
78289;DHT22;67539;48.752;12.922;2023-05-14T10:47:18;19.50;88.00
78289;DHT22;67539;48.752;12.922;2023-05-14T10:49:48;19.50;86.50
78289;DHT22;67539;48.752;12.922;2023-05-14T10:52:17;19.50;88.40
78289;DHT22;67539;48.752;12.922;2023-05-14T10:54:51;19.50;88.30
78289;DHT22;67539;48.752;12.922;2023-05-14T10:57:21;19.50;87.50
78289;DHT22;67539;48.752;12.922;2023-05-14T10:59:53;19.50;85.40
78289;DHT22;67539;48.752;12.922;2023-05-14T11:02:24;19.50;84.10
78289;DHT22;67539;48.752;12.922;2023-05-14T11:04:58;19.40;82.50
78289;DHT22;67539;48.752;12.922;2023-05-14T11:07:31;19.30;83.40
78289;DHT22;67539;48.752;12.922;2023-05-14T11:10:03;19.20;82.70
78289;DHT22;67539;48.752;12.922;2023-05-14T11:12:32;19.20;84.10
78289;DHT22;67539;48.752;12.922;2023-05-14T11:15:03;19.30;84.10
78289;DHT22;67539;48.752;12.922;2023-05-14T11:17:33;19.30;86.60
78289;DHT22;67539;48.752;12.922;2023-05-14T11:20:03;19.30;86.30
78289;DHT22;67539;48.752;12.922;2023-05-14T11:22:32;19.20;88.70
78289;DHT22;67539;48.752;12.922;2023-05-14T11:25:03;19.20;87.60
78289;DHT22;67539;48.752;12.922;2023-05-14T11:27:33;19.10;88.20
78289;DHT22;67539;48.752;12.922;2023-05-14T11:30:03;19.20;88.40
78289;DHT22;67539;48.752;12.922;2023-05-14T11:32:32;19.20;88.00
78289;DHT22;67539;48.752;12.922;2023-05-14T11:35:00;19.30;88.90
78289;DHT22;67539;48.752;12.922;2023-05-14T11:37:29;19.30;90.10
78289;DHT22;67539;48.752;12.922;2023-05-14T11:39:59;19.30;90.10
78289;DHT22;67539;48.752;12.922;2023-05-14T11:42:31;19.30;90.00
78289;DHT22;67539;48.752;12.922;2023-05-14T11:44:59;19.20;89.20
78289;DHT22;67539;48.752;12.922;2023-05-14T11:47:28;19.30;89.80
78289;DHT22;67539;48.752;12.922;2023-05-14T11:49:58;19.50;89.80
78289;DHT22;67539;48.752;12.922;2023-05-14T11:52:27;19.70;89.00
78289;DHT22;67539;48.752;12.922;2023-05-14T11:54:56;19.70;86.90
78289;DHT22;67539;48.752;12.922;2023-05-14T11:57:25;19.80;87.50
78289;DHT22;67539;48.752;12.922;2023-05-14T11:59:56;19.80;86.60
78289;DHT22;67539;48.752;12.922;2023-05-14T12:02:26;19.90;87.20
78289;DHT22;67539;48.752;12.922;2023-05-14T12:04:56;20.00;87.80
78289;DHT22;67539;48.752;12.922;2023-05-14T12:07:28;20.20;88.90
78289;DHT22;67539;48.752;12.922;2023-05-14T12:10:00;20.40;89.80
78289;DHT22;67539;48.752;12.922;2023-05-14T12:12:34;20.60;89.00
78289;DHT22;67539;48.752;12.922;2023-05-14T12:15:11;20.50;83.80
78289;DHT22;67539;48.752;12.922;2023-05-14T12:17:40;20.10;82.20
78289;DHT22;67539;48.752;12.922;2023-05-14T12:20:10;19.60;83.30
78289;DHT22;67539;48.752;12.922;2023-05-14T12:22:41;19.10;84.40
78289;DHT22;67539;48.752;12.922;2023-05-14T12:25:10;18.50;83.90
78289;DHT22;67539;48.752;12.922;2023-05-14T12:27:43;18.00;82.90
78289;DHT22;67539;48.752;12.922;2023-05-14T12:30:13;17.60;86.20
78289;DHT22;67539;48.752;12.922;2023-05-14T12:32:44;17.10;90.20
78289;DHT22;67539;48.752;12.922;2023-05-14T12:35:12;16.80;91.70
78289;DHT22;67539;48.752;12.922;2023-05-14T12:37:40;16.40;92.30
78289;DHT22;67539;48.752;12.922;2023-05-14T12:40:09;16.20;93.30
78289;DHT22;67539;48.752;12.922;2023-05-14T12:42:37;15.90;94.50
78289;DHT22;67539;48.752;12.922;2023-05-14T12:45:06;15.70;94.90
78289;DHT22;67539;48.752;12.922;2023-05-14T12:47:36;15.50;95.50
78289;DHT22;67539;48.752;12.922;2023-05-14T12:50:05;15.40;96.00
78289;DHT22;67539;48.752;12.922;2023-05-14T12:52:35;15.30;96.80
78289;DHT22;67539;48.752;12.922;2023-05-14T12:55:06;15.10;98.30
78289;DHT22;67539;48.752;12.922;2023-05-14T12:57:35;15.00;98.60
78289;DHT22;67539;48.752;12.922;2023-05-14T13:00:06;14.80;99.00
78289;DHT22;67539;48.752;12.922;2023-05-14T13:02:41;14.60;99.90
78289;DHT22;67539;48.752;12.922;2023-05-14T13:05:10;14.50;99.90
78289;DHT22;67539;48.752;12.922;2023-05-14T13:07:38;14.50;99.90
78289;DHT22;67539;48.752;12.922;2023-05-14T13:10:08;14.50;99.90
78289;DHT22;67539;48.752;12.922;2023-05-14T13:12:37;14.50;99.90
78289;DHT22;67539;48.752;12.922;2023-05-14T13:15:06;14.50;99.90
78289;DHT22;67539;48.752;12.922;2023-05-14T13:17:35;14.50;99.90
78289;DHT22;67539;48.752;12.922;2023-05-14T13:20:06;14.40;99.90
78289;DHT22;67539;48.752;12.922;2023-05-14T13:22:34;14.40;99.90
78289;DHT22;67539;48.752;12.922;2023-05-14T13:25:03;14.30;99.90
78289;DHT22;67539;48.752;12.922;2023-05-14T13:27:32;14.40;99.90
78289;DHT22;67539;48.752;12.922;2023-05-14T13:30:01;14.40;99.90
78289;DHT22;67539;48.752;12.922;2023-05-14T13:32:29;14.30;99.90
78289;DHT22;67539;48.752;12.922;2023-05-14T13:34:58;14.30;99.90
78289;DHT22;67539;48.752;12.922;2023-05-14T13:37:27;14.30;99.90
78289;DHT22;67539;48.752;12.922;2023-05-14T13:39:55;14.20;99.90
78289;DHT22;67539;48.752;12.922;2023-05-14T13:42:24;14.20;99.90
78289;DHT22;67539;48.752;12.922;2023-05-14T13:44:52;14.10;99.90
78289;DHT22;67539;48.752;12.922;2023-05-14T13:47:22;14.10;99.90
78289;DHT22;67539;48.752;12.922;2023-05-14T13:49:50;14.00;99.90
78289;DHT22;67539;48.752;12.922;2023-05-14T13:52:18;14.00;99.90
78289;DHT22;67539;48.752;12.922;2023-05-14T13:54:48;14.00;99.90
78289;DHT22;67539;48.752;12.922;2023-05-14T13:57:16;13.90;99.90
78289;DHT22;67539;48.752;12.922;2023-05-14T13:59:45;14.00;99.90
78289;DHT22;67539;48.752;12.922;2023-05-14T14:02:13;14.00;99.90
78289;DHT22;67539;48.752;12.922;2023-05-14T14:04:42;14.00;99.90
78289;DHT22;67539;48.752;12.922;2023-05-14T14:07:10;14.00;99.90
78289;DHT22;67539;48.752;12.922;2023-05-14T14:09:38;14.10;99.90
78289;DHT22;67539;48.752;12.922;2023-05-14T14:12:08;14.10;99.90
78289;DHT22;67539;48.752;12.922;2023-05-14T14:14:38;14.10;99.90
78289;DHT22;67539;48.752;12.922;2023-05-14T14:17:06;14.00;99.90
78289;DHT22;67539;48.752;12.922;2023-05-14T14:19:34;13.90;99.90
78289;DHT22;67539;48.752;12.922;2023-05-14T14:22:02;13.80;99.90
78289;DHT22;67539;48.752;12.922;2023-05-14T14:24:31;13.70;99.90
78289;DHT22;67539;48.752;12.922;2023-05-14T14:26:59;13.80;99.90
78289;DHT22;67539;48.752;12.922;2023-05-14T14:29:29;13.70;99.90
78289;DHT22;67539;48.752;12.922;2023-05-14T14:31:58;13.80;99.90
78289;DHT22;67539;48.752;12.922;2023-05-14T14:34:26;13.90;99.90
78289;DHT22;67539;48.752;12.922;2023-05-14T14:36:54;13.80;99.90
78289;DHT22;67539;48.752;12.922;2023-05-14T14:39:22;13.80;99.90
78289;DHT22;67539;48.752;12.922;2023-05-14T14:41:52;13.90;99.90
78289;DHT22;67539;48.752;12.922;2023-05-14T14:44:20;13.90;99.90
78289;DHT22;67539;48.752;12.922;2023-05-14T14:46:49;13.90;99.90
78289;DHT22;67539;48.752;12.922;2023-05-14T14:49:17;13.90;99.90
78289;DHT22;67539;48.752;12.922;2023-05-14T14:51:45;13.90;99.90
78289;DHT22;67539;48.752;12.922;2023-05-14T14:54:13;14.00;99.90
78289;DHT22;67539;48.752;12.922;2023-05-14T14:56:41;13.90;99.90
78289;DHT22;67539;48.752;12.922;2023-05-14T14:59:11;13.80;99.90
78289;DHT22;67539;48.752;12.922;2023-05-14T15:01:39;13.70;99.90
78289;DHT22;67539;48.752;12.922;2023-05-14T15:04:09;13.70;99.90
78289;DHT22;67539;48.752;12.922;2023-05-14T15:06:37;13.80;99.90
78289;DHT22;67539;48.752;12.922;2023-05-14T15:09:05;13.80;99.90
78289;DHT22;67539;48.752;12.922;2023-05-14T15:11:33;13.80;99.90
78289;DHT22;67539;48.752;12.922;2023-05-14T15:14:04;13.80;99.90
78289;DHT22;67539;48.752;12.922;2023-05-14T15:16:32;13.80;99.90
78289;DHT22;67539;48.752;12.922;2023-05-14T15:19:01;13.80;99.90
78289;DHT22;67539;48.752;12.922;2023-05-14T15:21:30;13.90;99.90
78289;DHT22;67539;48.752;12.922;2023-05-14T15:23:58;14.00;99.90
78289;DHT22;67539;48.752;12.922;2023-05-14T15:26:27;14.00;99.90
78289;DHT22;67539;48.752;12.922;2023-05-14T15:28:55;14.10;99.90
78289;DHT22;67539;48.752;12.922;2023-05-14T15:31:24;14.10;99.90
78289;DHT22;67539;48.752;12.922;2023-05-14T15:33:52;14.20;99.90
78289;DHT22;67539;48.752;12.922;2023-05-14T15:36:21;14.20;99.90